Time;durP1;ratioP1;P1;durP2;ratioP2;P2;SDS_P1;SDS_P2;PMS_P1;PMS_P2;Temp;Humidity;BMP_temperature;BMP_pressure;BME280_temperature;BME280_humidity;BME280_pressure;Samples;Min_cycle;Max_cycle;Signal;HPM_P1;HPM_P2
2024/01/04 00:00:28;;;;;;;0.77;0.60;;;5.10;99.90;;;;;;5009632;28;20614;-52
2024/01/04 00:02:54;;;;;;;0.75;0.70;;;5.10;99.90;;;;;;5011449;28;20036;-51
2024/01/04 00:05:20;;;;;;;3.70;0.70;;;5.10;99.90;;;;;;5020105;28;20021;-55
2024/01/04 00:07:45;;;;;;;2.65;0.75;;;5.00;99.90;;;;;;5017344;28;20029;-52
2024/01/04 00:10:13;;;;;;;2.67;0.80;;;5.00;99.90;;;;;;5016663;28;20390;-49
2024/01/04 00:12:39;;;;;;;1.85;0.70;;;5.00;99.90;;;;;;5013644;28;20553;-49
2024/01/04 00:15:06;;;;;;;1.67;0.57;;;5.00;99.90;;;;;;5013740;28;20042;-55
2024/01/04 00:17:32;;;;;;;2.80;0.88;;;5.00;99.90;;;;;;5016168;28;20071;-53
2024/01/04 00:19:57;;;;;;;1.02;0.70;;;4.90;99.90;;;;;;5009676;28;20693;-49
2024/01/04 00:22:23;;;;;;;2.67;1.10;;;5.00;99.90;;;;;;5010188;28;20172;-52
2024/01/04 00:24:49;;;;;;;1.27;0.55;;;4.90;99.90;;;;;;5006725;28;20438;-48
2024/01/04 00:27:15;;;;;;;0.98;0.50;;;4.90;99.90;;;;;;5012727;28;20529;-50
2024/01/04 00:29:42;;;;;;;0.52;0.40;;;4.90;99.90;;;;;;5011644;28;20038;-53
2024/01/04 00:32:10;;;;;;;1.05;0.73;;;4.90;99.90;;;;;;5008316;28;20023;-50
2024/01/04 00:34:36;;;;;;;1.42;0.35;;;4.80;99.90;;;;;;5011772;28;20029;-48
2024/01/04 00:37:04;;;;;;;3.63;1.00;;;4.90;99.90;;;;;;5012162;28;20458;-55
2024/01/04 00:39:29;;;;;;;1.00;0.70;;;4.80;99.90;;;;;;5012444;28;20034;-51
2024/01/04 00:41:56;;;;;;;4.30;0.47;;;4.80;99.90;;;;;;5005647;28;20029;-50
2024/01/04 00:44:21;;;;;;;0.75;0.68;;;4.80;99.90;;;;;;5008028;28;20026;-51
2024/01/04 00:46:47;;;;;;;2.75;0.60;;;4.80;99.90;;;;;;5010696;28;20028;-48
2024/01/04 00:49:13;;;;;;;0.50;0.38;;;4.80;99.90;;;;;;5014373;28;20070;-51
2024/01/04 00:51:38;;;;;;;2.15;0.63;;;4.80;99.90;;;;;;5004909;28;20115;-51
2024/01/04 00:54:04;;;;;;;2.45;0.50;;;4.80;99.90;;;;;;5004132;28;20015;-53
2024/01/04 00:56:33;;;;;;;1.33;0.50;;;4.80;99.90;;;;;;5009635;28;20454;-48
2024/01/04 00:59:00;;;;;;;0.50;0.30;;;4.80;99.90;;;;;;5007345;28;20034;-53
2024/01/04 01:01:26;;;;;;;1.35;0.63;;;4.80;99.90;;;;;;5008231;28;20051;-51
2024/01/04 01:03:51;;;;;;;0.38;0.10;;;4.70;99.90;;;;;;5011284;28;20576;-52
2024/01/04 01:06:17;;;;;;;0.90;0.40;;;4.70;99.90;;;;;;5005352;28;20109;-48
2024/01/04 01:08:42;;;;;;;3.00;0.32;;;4.70;99.90;;;;;;4996750;28;20137;-50
2024/01/04 01:11:08;;;;;;;3.28;0.68;;;4.70;99.90;;;;;;5001125;28;20033;-49
2024/01/04 01:13:34;;;;;;;1.02;0.40;;;4.70;99.90;;;;;;4998483;28;20022;-52
2024/01/04 01:16:00;;;;;;;2.95;0.43;;;4.70;99.90;;;;;;5005201;28;20046;-48
2024/01/04 01:18:26;;;;;;;1.05;0.57;;;4.70;99.90;;;;;;5002334;28;20042;-47
2024/01/04 01:20:52;;;;;;;2.40;0.82;;;4.70;99.90;;;;;;5002972;28;20033;-48
2024/01/04 01:23:17;;;;;;;2.95;0.60;;;4.60;99.90;;;;;;5005010;28;20108;-51
2024/01/04 01:25:43;;;;;;;2.25;0.50;;;4.60;99.90;;;;;;5005520;28;20022;-50
2024/01/04 01:28:08;;;;;;;1.73;0.70;;;4.60;99.90;;;;;;5004306;28;20097;-51
2024/01/04 01:30:34;;;;;;;1.60;0.90;;;4.60;99.90;;;;;;5003484;28;20640;-49
2024/01/04 01:32:59;;;;;;;1.75;0.73;;;4.60;99.90;;;;;;5005878;28;20394;-51
2024/01/04 01:35:25;;;;;;;0.65;0.57;;;4.60;99.90;;;;;;5000041;28;20026;-52
2024/01/04 01:37:51;;;;;;;1.55;0.30;;;4.60;99.90;;;;;;4995958;28;20099;-49
2024/01/04 01:40:16;;;;;;;0.30;0.30;;;4.60;99.90;;;;;;5001580;28;20030;-50
2024/01/04 01:42:47;;;;;;;2.72;0.43;;;4.50;99.90;;;;;;4997714;28;20041;-48
2024/01/04 01:45:12;;;;;;;2.42;0.88;;;4.50;99.90;;;;;;4997573;28;20025;-55
2024/01/04 01:47:39;;;;;;;2.08;0.60;;;4.40;99.90;;;;;;5002527;28;20375;-48
2024/01/04 01:50:07;;;;;;;1.25;0.65;;;4.40;99.90;;;;;;4996505;28;20566;-49
2024/01/04 01:52:32;;;;;;;0.50;0.50;;;4.40;99.90;;;;;;5001096;28;20096;-49
2024/01/04 01:54:58;;;;;;;1.05;0.50;;;4.40;99.90;;;;;;5000090;28;20025;-51
2024/01/04 01:57:27;;;;;;;4.40;0.93;;;4.40;99.90;;;;;;5000477;28;20034;-49
2024/01/04 01:59:53;;;;;;;2.45;0.77;;;4.30;99.90;;;;;;4995793;28;20053;-47
2024/01/04 02:02:19;;;;;;;3.08;0.90;;;4.30;99.90;;;;;;5000238;28;20616;-48
2024/01/04 02:04:44;;;;;;;1.17;0.70;;;4.30;99.90;;;;;;5001248;28;20033;-48
2024/01/04 02:07:10;;;;;;;1.05;0.70;;;4.30;99.90;;;;;;5007220;28;20037;-49
2024/01/04 02:09:36;;;;;;;0.50;0.50;;;4.30;99.90;;;;;;5004203;28;20022;-51
2024/01/04 02:12:06;;;;;;;0.73;0.60;;;4.30;99.90;;;;;;5006815;28;20044;-49
2024/01/04 02:14:32;;;;;;;0.75;0.45;;;4.30;99.90;;;;;;4999284;28;20622;-51
2024/01/04 02:16:58;;;;;;;1.30;0.50;;;4.30;99.90;;;;;;5000644;28;20026;-49
2024/01/04 02:19:24;;;;;;;1.35;0.50;;;4.30;99.90;;;;;;5010147;28;20136;-49
2024/01/04 02:21:50;;;;;;;0.38;0.30;;;4.30;99.90;;;;;;5001586;28;20044;-55
2024/01/04 02:24:15;;;;;;;2.25;0.70;;;4.20;99.90;;;;;;5009947;28;20447;-47
2024/01/04 02:26:41;;;;;;;1.88;0.73;;;4.20;99.90;;;;;;5002668;28;20213;-48
2024/01/04 02:29:06;;;;;;;2.55;0.45;;;4.20;99.90;;;;;;5006953;28;20034;-51
2024/01/04 02:31:32;;;;;;;0.82;0.43;;;4.20;99.90;;;;;;5005672;28;20505;-47
2024/01/04 02:33:57;;;;;;;0.47;0.38;;;4.20;99.90;;;;;;5005394;28;20034;-47
2024/01/04 02:36:24;;;;;;;0.55;0.43;;;4.10;99.90;;;;;;5006039;28;20035;-51
2024/01/04 02:38:50;;;;;;;1.73;0.32;;;4.00;99.90;;;;;;5001853;28;20041;-58
2024/01/04 02:41:15;;;;;;;0.65;0.40;;;4.10;99.90;;;;;;5009045;28;20042;-48
2024/01/04 02:43:41;;;;;;;1.75;0.50;;;4.00;99.90;;;;;;5005323;28;20100;-54
2024/01/04 02:46:06;;;;;;;2.33;0.60;;;4.00;99.90;;;;;;5009905;28;20038;-54
2024/01/04 02:48:32;;;;;;;0.90;0.47;;;4.00;99.90;;;;;;5006281;28;20038;-47
2024/01/04 02:50:58;;;;;;;1.17;0.30;;;4.00;99.90;;;;;;5010144;28;20564;-48
2024/01/04 02:53:23;;;;;;;0.65;0.40;;;4.00;99.90;;;;;;5013119;28;20103;-49
2024/01/04 02:55:49;;;;;;;0.60;0.38;;;3.90;99.90;;;;;;5013617;28;20054;-49
2024/01/04 02:58:15;;;;;;;3.97;0.70;;;3.90;99.90;;;;;;5008754;28;20101;-50
2024/01/04 03:00:40;;;;;;;2.08;0.50;;;3.90;99.90;;;;;;5008698;28;20038;-49
2024/01/04 03:03:06;;;;;;;2.03;0.63;;;3.80;99.90;;;;;;5006794;28;20041;-48
2024/01/04 03:05:31;;;;;;;0.70;0.52;;;3.80;99.90;;;;;;5009277;28;20034;-48
2024/01/04 03:07:57;;;;;;;1.77;0.70;;;3.80;99.90;;;;;;5005296;28;20109;-51
2024/01/04 03:10:22;;;;;;;0.73;0.70;;;3.70;99.90;;;;;;5005849;28;20110;-51
2024/01/04 03:12:48;;;;;;;0.77;0.50;;;3.70;99.90;;;;;;5009499;28;20112;-48
2024/01/04 03:15:13;;;;;;;1.00;0.55;;;3.70;99.90;;;;;;5007608;28;20394;-48
2024/01/04 03:17:39;;;;;;;0.88;0.77;;;3.70;99.90;;;;;;5011707;28;20494;-49
2024/01/04 03:20:05;;;;;;;1.05;0.70;;;3.70;99.90;;;;;;5008722;28;20022;-48
2024/01/04 03:22:31;;;;;;;1.85;0.50;;;3.70;99.90;;;;;;5009993;28;20513;-57
2024/01/04 03:24:56;;;;;;;0.47;0.45;;;3.70;99.90;;;;;;5012842;28;20087;-50
2024/01/04 03:27:22;;;;;;;2.00;0.70;;;3.60;99.90;;;;;;5008472;28;20038;-48
2024/01/04 03:29:49;;;;;;;1.83;0.50;;;3.60;99.90;;;;;;5011846;28;20033;-49
2024/01/04 03:32:15;;;;;;;0.60;0.60;;;3.50;99.90;;;;;;5009685;28;20379;-51
2024/01/04 03:34:41;;;;;;;0.57;0.57;;;3.50;99.90;;;;;;5011276;28;20029;-50
2024/01/04 03:37:09;;;;;;;0.57;0.57;;;3.40;99.90;;;;;;5011456;28;20131;-51
2024/01/04 03:39:35;;;;;;;0.73;0.70;;;3.40;99.90;;;;;;5013939;28;20583;-50
2024/01/04 03:42:01;;;;;;;0.50;0.50;;;3.30;99.90;;;;;;5011690;28;20046;-48
2024/01/04 03:44:26;;;;;;;0.88;0.50;;;3.30;99.90;;;;;;4996085;28;20025;-48
2024/01/04 03:46:52;;;;;;;0.98;0.80;;;3.30;99.90;;;;;;5009594;28;20052;-51
2024/01/04 03:49:17;;;;;;;0.60;0.50;;;3.20;99.90;;;;;;5006764;28;20394;-48
2024/01/04 03:51:43;;;;;;;2.47;0.70;;;3.20;99.90;;;;;;5009272;28;20681;-49
2024/01/04 03:54:08;;;;;;;0.93;0.60;;;3.20;99.90;;;;;;5007831;28;20481;-49
2024/01/04 03:56:34;;;;;;;0.50;0.50;;;3.10;99.90;;;;;;5009668;28;20489;-49
2024/01/04 03:58:59;;;;;;;2.72;0.80;;;3.10;99.90;;;;;;5011356;28;20052;-49
2024/01/04 04:01:25;;;;;;;2.85;0.85;;;3.10;99.90;;;;;;5011254;28;20033;-51
2024/01/04 04:03:50;;;;;;;1.95;0.85;;;3.10;99.90;;;;;;5010868;28;20084;-49
2024/01/04 04:06:19;;;;;;;1.08;0.75;;;3.00;99.90;;;;;;5012237;28;20386;-54
2024/01/04 04:08:45;;;;;;;0.73;0.73;;;2.90;99.90;;;;;;5008231;28;21376;-52
2024/01/04 04:11:17;;;;;;;1.33;1.20;;;2.90;99.90;;;;;;5009750;28;20065;-55
2024/01/04 04:13:43;;;;;;;1.90;1.10;;;2.90;99.90;;;;;;5010348;28;20034;-51
2024/01/04 04:16:09;;;;;;;0.98;0.88;;;2.90;99.90;;;;;;5013443;28;20053;-51
2024/01/04 04:18:34;;;;;;;1.08;0.75;;;2.80;99.90;;;;;;5009781;28;20033;-52
2024/01/04 04:21:00;;;;;;;1.45;0.93;;;2.80;99.90;;;;;;5010645;28;20065;-52
2024/01/04 04:23:26;;;;;;;0.77;0.70;;;2.80;99.90;;;;;;5013269;28;20114;-50
2024/01/04 04:25:51;;;;;;;0.80;0.75;;;2.80;99.90;;;;;;5010312;28;20021;-54
2024/01/04 04:28:17;;;;;;;1.27;0.90;;;2.80;99.90;;;;;;5010944;28;20038;-51
2024/01/04 04:30:43;;;;;;;1.30;0.80;;;2.70;99.90;;;;;;5009514;28;20524;-48
2024/01/04 04:33:08;;;;;;;0.85;0.73;;;2.70;99.90;;;;;;5004189;28;20139;-48
2024/01/04 04:35:34;;;;;;;1.80;1.05;;;2.70;99.90;;;;;;5013222;28;20030;-55
2024/01/04 04:38:00;;;;;;;2.22;1.60;;;2.60;99.90;;;;;;5008384;28;20022;-49
2024/01/04 04:40:25;;;;;;;1.77;1.45;;;2.60;99.90;;;;;;5013287;28;20029;-54
2024/01/04 04:42:51;;;;;;;1.77;1.30;;;2.50;99.90;;;;;;5009637;28;20337;-48
2024/01/04 04:45:16;;;;;;;2.10;1.40;;;2.40;99.90;;;;;;5016707;28;20523;-51
2024/01/04 04:47:42;;;;;;;2.55;1.60;;;2.40;99.90;;;;;;5011506;28;20100;-51
2024/01/04 04:50:08;;;;;;;1.80;1.70;;;2.30;99.90;;;;;;5008137;28;20080;-49
2024/01/04 04:52:33;;;;;;;4.15;1.83;;;2.30;99.90;;;;;;5012116;28;20083;-53
2024/01/04 04:54:59;;;;;;;1.60;1.50;;;2.20;99.90;;;;;;5011427;28;20030;-53
2024/01/04 04:57:25;;;;;;;5.18;1.60;;;2.20;99.90;;;;;;5011019;28;20033;-50
2024/01/04 04:59:50;;;;;;;1.77;1.67;;;2.10;99.90;;;;;;5007977;28;20397;-48
2024/01/04 05:02:16;;;;;;;2.00;1.80;;;2.10;99.90;;;;;;5010459;28;20075;-49
2024/01/04 05:04:43;;;;;;;1.42;1.33;;;2.10;99.90;;;;;;5011120;28;20509;-52
2024/01/04 05:07:09;;;;;;;1.95;1.52;;;2.00;99.90;;;;;;5005656;28;20019;-55
2024/01/04 05:09:34;;;;;;;1.40;1.30;;;2.00;99.90;;;;;;5011929;28;20110;-50
2024/01/04 05:12:00;;;;;;;1.40;1.30;;;1.90;99.90;;;;;;5005297;28;20040;-48
2024/01/04 05:14:25;;;;;;;1.40;1.30;;;1.90;99.90;;;;;;5013218;28;20052;-53
2024/01/04 05:16:51;;;;;;;1.80;1.30;;;1.80;99.90;;;;;;5011628;28;20501;-53
2024/01/04 05:19:16;;;;;;;1.02;1.02;;;1.80;99.90;;;;;;5013596;28;20064;-48
2024/01/04 05:21:42;;;;;;;1.30;1.13;;;1.70;99.90;;;;;;5008648;28;20030;-48
2024/01/04 05:24:07;;;;;;;2.05;1.45;;;1.70;99.90;;;;;;5009011;28;20120;-54
2024/01/04 05:26:33;;;;;;;1.48;1.35;;;1.70;99.90;;;;;;5014513;28;20037;-53
2024/01/04 05:28:58;;;;;;;1.83;1.35;;;1.70;99.90;;;;;;5005298;28;20105;-49
2024/01/04 05:31:25;;;;;;;2.40;1.42;;;1.70;99.90;;;;;;5008115;28;20065;-47
2024/01/04 05:33:51;;;;;;;1.67;1.42;;;1.70;99.90;;;;;;5002587;28;20049;-52
2024/01/04 05:36:16;;;;;;;1.48;1.38;;;1.60;99.90;;;;;;5016260;28;20049;-50
2024/01/04 05:38:42;;;;;;;1.20;1.10;;;1.60;99.90;;;;;;5005636;28;20486;-49
2024/01/04 05:41:07;;;;;;;1.35;1.25;;;1.60;99.90;;;;;;5011283;28;20021;-50
2024/01/04 05:43:34;;;;;;;1.20;1.10;;;1.60;99.90;;;;;;5006326;28;20034;-55
2024/01/04 05:46:04;;;;;;;2.55;1.10;;;1.50;99.90;;;;;;5007183;28;20040;-51
2024/01/04 05:48:31;;;;;;;1.40;1.30;;;1.50;99.90;;;;;;5005843;28;20026;-53
2024/01/04 05:50:57;;;;;;;0.98;0.88;;;1.40;99.90;;;;;;5013831;28;20558;-47
2024/01/04 05:53:23;;;;;;;1.90;1.30;;;1.40;99.90;;;;;;5010950;28;20062;-53
2024/01/04 05:55:48;;;;;;;1.15;1.05;;;1.40;99.90;;;;;;5014620;28;20029;-51
2024/01/04 05:58:14;;;;;;;1.40;1.20;;;1.50;99.90;;;;;;5006453;28;20025;-55
2024/01/04 06:00:39;;;;;;;0.95;0.85;;;1.50;99.90;;;;;;5006877;28;20026;-49
2024/01/04 06:03:05;;;;;;;1.05;0.95;;;1.40;99.90;;;;;;5010917;28;20068;-51
2024/01/04 06:05:31;;;;;;;0.95;0.88;;;1.40;99.90;;;;;;5007418;28;20034;-50
2024/01/04 06:07:56;;;;;;;0.90;0.90;;;1.40;99.90;;;;;;5010161;28;20037;-52
2024/01/04 06:10:22;;;;;;;2.78;1.10;;;1.30;99.90;;;;;;5006006;28;20026;-48
2024/01/04 06:12:47;;;;;;;0.82;0.80;;;1.30;99.90;;;;;;5007384;28;20100;-50
2024/01/04 06:15:13;;;;;;;1.20;1.02;;;1.30;99.90;;;;;;5008923;28;20068;-53
2024/01/04 06:17:39;;;;;;;0.50;0.50;;;1.30;99.90;;;;;;5012366;28;20029;-49
2024/01/04 06:20:05;;;;;;;1.15;0.90;;;1.20;99.90;;;;;;5008696;28;20029;-48
2024/01/04 06:22:30;;;;;;;1.45;0.70;;;1.20;99.90;;;;;;5011235;28;20099;-51
2024/01/04 06:24:56;;;;;;;1.00;0.90;;;1.20;99.90;;;;;;5004600;28;20032;-50
2024/01/04 06:27:21;;;;;;;1.10;0.70;;;1.10;99.90;;;;;;5011624;28;20036;-51
2024/01/04 06:29:47;;;;;;;2.03;1.20;;;1.10;99.90;;;;;;5005627;28;20084;-52
2024/01/04 06:32:12;;;;;;;1.48;0.80;;;1.00;99.90;;;;;;5005888;28;20046;-47
2024/01/04 06:34:38;;;;;;;0.77;0.77;;;1.00;99.90;;;;;;5011300;28;20030;-51
2024/01/04 06:37:04;;;;;;;1.52;1.05;;;1.00;99.90;;;;;;5013327;28;20591;-50
2024/01/04 06:39:29;;;;;;;1.30;0.90;;;0.90;99.90;;;;;;5009680;28;20409;-47
2024/01/04 06:41:56;;;;;;;0.77;0.75;;;0.90;99.90;;;;;;5011891;28;20041;-53
2024/01/04 06:44:22;;;;;;;1.50;1.02;;;0.90;99.90;;;;;;5010545;28;20029;-49
2024/01/04 06:46:48;;;;;;;0.77;0.70;;;0.90;99.90;;;;;;5013049;28;20026;-48
2024/01/04 06:49:13;;;;;;;0.70;0.70;;;0.90;99.90;;;;;;5011683;28;20084;-53
2024/01/04 06:51:39;;;;;;;2.30;0.82;;;0.90;99.90;;;;;;5014405;28;20410;-47
2024/01/04 06:54:04;;;;;;;1.10;0.82;;;0.90;99.90;;;;;;5012821;28;20041;-53
2024/01/04 06:56:30;;;;;;;0.65;0.65;;;0.90;99.90;;;;;;5009110;28;20032;-54
2024/01/04 06:58:56;;;;;;;1.75;0.70;;;0.80;99.90;;;;;;5010040;28;20034;-54
2024/01/04 07:01:21;;;;;;;1.02;0.70;;;0.90;99.90;;;;;;5014087;28;20030;-51
2024/01/04 07:03:47;;;;;;;1.50;1.40;;;0.80;99.90;;;;;;5005714;28;20038;-52
2024/01/04 07:06:13;;;;;;;1.75;1.20;;;0.80;99.90;;;;;;5005348;28;20137;-52
2024/01/04 07:08:39;;;;;;;2.80;1.05;;;0.80;99.90;;;;;;5008005;28;20580;-54
2024/01/04 07:11:05;;;;;;;2.88;0.80;;;0.80;99.90;;;;;;5009441;28;20030;-54
2024/01/04 07:13:33;;;;;;;1.42;0.82;;;0.80;99.90;;;;;;5000993;28;20034;-52
2024/01/04 07:16:02;;;;;;;1.20;0.80;;;0.80;99.90;;;;;;5011060;28;20021;-53
2024/01/04 07:18:28;;;;;;;1.77;1.20;;;0.80;99.90;;;;;;5008083;28;20026;-49
2024/01/04 07:20:54;;;;;;;1.10;1.00;;;0.80;99.90;;;;;;5007062;28;20022;-51
2024/01/04 07:23:20;;;;;;;2.40;1.23;;;0.80;99.90;;;;;;5012405;28;20084;-49
2024/01/04 07:25:45;;;;;;;0.70;0.70;;;0.80;99.90;;;;;;5012914;28;20045;-49
2024/01/04 07:28:11;;;;;;;2.15;1.08;;;0.80;99.90;;;;;;5009139;28;22299;-52
2024/01/04 07:30:36;;;;;;;0.70;0.70;;;0.80;99.90;;;;;;5010061;28;20034;-50
2024/01/04 07:33:03;;;;;;;1.85;0.70;;;0.80;99.90;;;;;;5010250;28;20692;-52
2024/01/04 07:35:29;;;;;;;1.27;0.80;;;0.80;99.90;;;;;;5013062;28;20022;-51
2024/01/04 07:37:54;;;;;;;0.98;0.68;;;0.80;99.90;;;;;;5009547;28;20022;-50
2024/01/04 07:40:20;;;;;;;3.15;0.80;;;0.80;99.90;;;;;;5011323;28;20029;-52
2024/01/04 07:42:46;;;;;;;1.77;1.00;;;0.80;99.90;;;;;;5011845;28;20077;-55
2024/01/04 07:45:12;;;;;;;1.10;0.80;;;0.80;99.90;;;;;;5005977;28;20316;-54
2024/01/04 07:47:38;;;;;;;2.15;0.90;;;0.80;99.90;;;;;;5009709;28;20034;-49
2024/01/04 07:50:04;;;;;;;2.10;1.05;;;0.80;99.90;;;;;;5009390;28;20037;-53
2024/01/04 07:52:30;;;;;;;1.05;0.70;;;0.80;99.90;;;;;;5011048;28;20041;-52
2024/01/04 07:54:56;;;;;;;0.80;0.50;;;0.70;99.90;;;;;;5014991;28;20034;-52
2024/01/04 07:57:21;;;;;;;3.15;0.98;;;0.70;99.90;;;;;;5008920;28;20482;-52
2024/01/04 07:59:47;;;;;;;1.23;1.13;;;0.80;99.90;;;;;;5012550;28;20030;-49
2024/01/04 08:02:13;;;;;;;1.05;0.90;;;0.80;99.90;;;;;;5007492;28;20109;-51
2024/01/04 08:04:38;;;;;;;1.67;0.80;;;0.80;99.90;;;;;;5006525;28;20398;-53
2024/01/04 08:07:04;;;;;;;0.68;0.68;;;0.80;99.90;;;;;;5006292;28;20517;-52
2024/01/04 08:09:30;;;;;;;1.02;0.75;;;0.80;99.90;;;;;;5012170;28;20181;-52
2024/01/04 08:11:55;;;;;;;5.32;1.00;;;0.80;99.90;;;;;;5011975;28;20022;-53
2024/01/04 08:14:21;;;;;;;1.83;0.90;;;0.80;99.90;;;;;;5010359;28;20026;-50
2024/01/04 08:16:47;;;;;;;2.10;0.88;;;0.80;99.90;;;;;;5012138;28;20104;-52
2024/01/04 08:19:14;;;;;;;1.90;1.10;;;0.80;99.90;;;;;;5008333;28;20053;-51
2024/01/04 08:21:39;;;;;;;0.98;0.88;;;0.70;99.90;;;;;;5006028;28;20085;-48
2024/01/04 08:24:06;;;;;;;2.60;0.70;;;0.70;99.90;;;;;;5007737;28;20022;-52
2024/01/04 08:26:32;;;;;;;0.65;0.65;;;0.80;99.90;;;;;;5012239;28;20038;-52
2024/01/04 08:28:57;;;;;;;1.92;0.95;;;0.80;99.90;;;;;;5007520;28;20030;-53
2024/01/04 08:31:23;;;;;;;0.50;0.50;;;0.80;99.90;;;;;;5008816;28;20766;-54
2024/01/04 08:33:49;;;;;;;1.00;0.80;;;0.80;99.90;;;;;;5014396;28;20026;-49
2024/01/04 08:36:14;;;;;;;0.95;0.70;;;0.80;99.90;;;;;;5009191;28;20449;-51
2024/01/04 08:38:40;;;;;;;1.67;0.80;;;0.70;99.90;;;;;;5008736;28;20052;-53
2024/01/04 08:41:05;;;;;;;1.55;0.80;;;0.80;99.90;;;;;;5006457;28;20030;-55
2024/01/04 08:43:31;;;;;;;1.52;0.90;;;0.70;99.90;;;;;;5010841;28;20541;-53
2024/01/04 08:45:57;;;;;;;0.73;0.50;;;0.80;99.90;;;;;;5002144;28;20030;-53
2024/01/04 08:48:22;;;;;;;0.77;0.77;;;0.70;99.90;;;;;;5004629;28;20040;-50
2024/01/04 08:50:48;;;;;;;0.82;0.82;;;0.70;99.90;;;;;;5001679;28;20112;-50
2024/01/04 08:53:20;;;;;;;0.90;0.82;;;0.70;99.90;;;;;;5013523;28;20561;-52
2024/01/04 08:55:45;;;;;;;0.80;0.80;;;0.70;99.90;;;;;;5008817;28;20540;-52
2024/01/04 08:58:11;;;;;;;1.90;1.05;;;0.70;99.90;;;;;;5009715;28;20030;-52
2024/01/04 09:00:37;;;;;;;1.00;0.60;;;0.60;99.90;;;;;;5011917;28;20104;-54
2024/01/04 09:03:02;;;;;;;1.95;0.68;;;0.60;99.90;;;;;;5006477;28;20121;-51
2024/01/04 09:05:29;;;;;;;0.65;0.60;;;0.60;99.90;;;;;;5010829;28;20113;-50
2024/01/04 09:07:54;;;;;;;1.92;0.70;;;0.70;99.90;;;;;;5013174;28;20021;-52
2024/01/04 09:10:20;;;;;;;1.45;0.85;;;0.60;99.90;;;;;;5009733;28;20032;-54
2024/01/04 09:12:46;;;;;;;2.30;1.13;;;0.70;99.90;;;;;;5011235;28;20034;-53
2024/01/04 09:15:12;;;;;;;0.40;0.40;;;0.70;99.90;;;;;;5007612;28;20554;-50
2024/01/04 09:17:40;;;;;;;3.33;1.08;;;0.60;99.90;;;;;;5008288;28;20022;-51
2024/01/04 09:20:06;;;;;;;0.60;0.52;;;0.70;99.90;;;;;;5009882;28;20306;-51
2024/01/04 09:22:32;;;;;;;2.80;1.02;;;0.60;99.90;;;;;;5005655;28;20572;-53
2024/01/04 09:24:58;;;;;;;1.38;0.60;;;0.60;99.90;;;;;;5010790;28;20037;-51
2024/01/04 09:27:23;;;;;;;0.77;0.50;;;0.60;99.90;;;;;;5009331;28;20394;-50
2024/01/04 09:29:50;;;;;;;0.70;0.52;;;0.60;99.90;;;;;;5006178;28;20108;-52
2024/01/04 09:32:16;;;;;;;2.00;1.17;;;0.50;99.90;;;;;;5009020;28;20058;-51
2024/01/04 09:34:41;;;;;;;0.98;0.88;;;0.50;99.90;;;;;;5011910;28;20547;-53
2024/01/04 09:37:07;;;;;;;1.83;1.08;;;0.50;99.90;;;;;;5011889;28;20025;-53
2024/01/04 09:39:33;;;;;;;1.23;0.68;;;0.50;99.90;;;;;;5008734;28;20022;-52
2024/01/04 09:42:00;;;;;;;2.00;0.85;;;0.50;99.90;;;;;;5006875;28;20034;-54
2024/01/04 09:44:26;;;;;;;1.17;0.93;;;0.60;99.90;;;;;;5010710;28;20038;-54
2024/01/04 09:46:55;;;;;;;5.63;1.00;;;0.50;99.90;;;;;;5005214;28;20044;-49
2024/01/04 09:49:22;;;;;;;1.60;0.90;;;0.60;99.90;;;;;;5003702;28;20053;-51
2024/01/04 09:51:48;;;;;;;2.58;1.33;;;0.50;99.90;;;;;;5007092;28;20051;-51
2024/01/04 09:54:16;;;;;;;2.10;0.90;;;0.50;99.90;;;;;;5011937;28;20089;-52
2024/01/04 09:56:43;;;;;;;1.15;0.80;;;0.60;99.90;;;;;;5007897;28;20022;-52
2024/01/04 09:59:10;;;;;;;1.48;0.82;;;0.60;99.90;;;;;;5010367;28;20033;-51
2024/01/04 10:01:38;;;;;;;2.17;0.80;;;0.50;99.90;;;;;;5004047;28;20426;-52
2024/01/04 10:04:05;;;;;;;2.83;0.80;;;0.50;99.90;;;;;;5013519;28;20090;-51
2024/01/04 10:06:32;;;;;;;1.10;0.82;;;0.50;99.90;;;;;;5009362;28;20068;-50
2024/01/04 10:09:21;;;;;;;1.15;0.82;;;0.50;99.90;;;;;;5009347;28;20041;-51
2024/01/04 10:12:03;;;;;;;1.70;0.77;;;0.50;99.90;;;;;;5005676;28;20148;-50
2024/01/04 10:14:29;;;;;;;1.33;1.00;;;0.50;99.90;;;;;;5003618;28;20069;-53
2024/01/04 10:16:56;;;;;;;2.88;1.17;;;0.50;99.90;;;;;;5005428;28;20057;-52
2024/01/04 10:19:22;;;;;;;1.27;0.88;;;0.60;99.90;;;;;;5009311;28;20099;-50
2024/01/04 10:21:48;;;;;;;1.15;1.02;;;0.50;99.90;;;;;;5005567;28;20220;-49
2024/01/04 10:24:20;;;;;;;2.35;0.80;;;0.50;99.90;;;;;;5006266;28;20030;-49
2024/01/04 10:26:57;;;;;;;1.00;0.90;;;0.50;99.90;;;;;;5004623;28;20414;-51
2024/01/04 10:29:23;;;;;;;2.13;0.80;;;0.50;99.90;;;;;;5009291;28;20022;-50
2024/01/04 10:32:00;;;;;;;0.70;0.70;;;0.50;99.90;;;;;;5002601;28;20066;-50
2024/01/04 10:34:28;;;;;;;;;;;0.50;99.90;;;;;;5011501;28;20053;-52
2024/01/04 10:36:57;;;;;;;1.10;0.77;;;0.50;99.90;;;;;;5002432;28;19932;-49
2024/01/04 10:39:22;;;;;;;1.00;0.70;;;0.40;99.90;;;;;;5009532;28;20498;-50
2024/01/04 10:41:59;;;;;;;3.30;1.10;;;0.40;99.90;;;;;;5008262;28;20021;-51
2024/01/04 10:44:26;;;;;;;2.25;0.93;;;0.40;99.90;;;;;;5007615;28;20056;-49
2024/01/04 10:46:59;;;;;;;2.17;1.25;;;0.50;99.90;;;;;;5010594;28;20363;-51
2024/01/04 10:49:25;;;;;;;0.70;0.70;;;0.50;99.90;;;;;;5001263;28;20396;-49
2024/01/04 10:51:53;;;;;;;1.25;0.80;;;0.40;99.90;;;;;;5006732;28;20057;-50
2024/01/04 10:54:19;;;;;;;1.02;0.80;;;0.40;99.90;;;;;;5003973;28;20030;-49
2024/01/04 10:56:45;;;;;;;1.60;1.00;;;0.40;99.90;;;;;;5010446;28;20042;-48
2024/01/04 10:59:12;;;;;;;1.60;0.90;;;0.50;99.90;;;;;;5016791;28;20449;-50
2024/01/04 11:01:41;;;;;;;1.00;0.88;;;0.40;99.90;;;;;;5012980;28;20117;-48
2024/01/04 11:04:07;;;;;;;0.85;0.80;;;0.40;99.90;;;;;;5014153;28;20034;-49
2024/01/04 11:06:40;;;;;;;3.03;1.27;;;0.40;99.90;;;;;;5012840;28;20482;-51
2024/01/04 11:09:07;;;;;;;1.58;1.05;;;0.40;99.90;;;;;;5014295;28;20037;-50
2024/01/04 11:11:34;;;;;;;1.15;1.00;;;0.40;99.90;;;;;;5012862;28;20037;-51
2024/01/04 11:14:00;;;;;;;1.00;0.73;;;0.40;99.90;;;;;;5014811;28;20066;-50
2024/01/04 11:16:56;;;;;;;2.17;1.00;;;0.40;99.90;;;;;;5016129;28;20086;-51
2024/01/04 11:19:43;;;;;;;1.15;0.80;;;0.40;99.90;;;;;;5034196;22;20499;-61
2024/01/04 11:22:28;;;;;;;3.22;1.10;;;0.40;99.90;;;;;;5004314;28;20046;-61
2024/01/04 11:25:03;;;;;;;1.17;0.70;;;0.40;99.90;;;;;;5004058;28;20640;-60
2024/01/04 11:27:30;;;;;;;1.30;0.77;;;0.40;99.90;;;;;;5004948;28;20380;-61
2024/01/04 11:29:56;;;;;;;1.90;1.00;;;0.40;99.90;;;;;;4999725;28;20029;-61
2024/01/04 11:32:23;;;;;;;1.08;0.80;;;0.40;99.90;;;;;;5001012;28;20550;-61
2024/01/04 11:34:49;;;;;;;1.75;0.75;;;0.40;99.90;;;;;;5005159;28;20414;-61
2024/01/04 11:37:20;;;;;;;3.13;1.08;;;0.40;99.90;;;;;;5003063;28;20032;-60
2024/01/04 11:40:00;;;;;;;1.35;1.13;;;0.40;99.90;;;;;;4999964;28;20171;-64
2024/01/04 11:42:39;;;;;;;2.28;0.90;;;0.40;99.90;;;;;;5001585;28;20061;-62
2024/01/04 11:45:12;;;;;;;1.17;0.98;;;0.30;99.90;;;;;;5002660;28;20426;-61
2024/01/04 11:47:39;;;;;;;2.25;0.80;;;0.30;99.90;;;;;;5002194;28;20026;-60
2024/01/04 11:50:25;;;;;;;0.82;0.80;;;0.30;99.90;;;;;;5002388;28;20033;-60
2024/01/04 11:52:51;;;;;;;1.60;0.70;;;0.40;99.90;;;;;;5000961;28;20034;-62
2024/01/04 11:55:27;;;;;;;2.05;0.90;;;0.40;99.90;;;;;;5002566;28;20030;-62
2024/01/04 11:58:11;;;;;;;0.70;0.70;;;0.30;99.90;;;;;;4997821;28;20110;-62
2024/01/04 12:00:38;;;;;;;1.35;1.10;;;0.30;99.90;;;;;;5002957;28;20032;-63
2024/01/04 12:03:17;;;;;;;2.85;0.93;;;0.40;99.90;;;;;;5001405;28;20022;-62
2024/01/04 12:05:50;;;;;;;1.77;1.02;;;0.30;99.90;;;;;;5001845;28;20031;-62
2024/01/04 12:08:29;;;;;;;2.60;0.88;;;0.40;99.90;;;;;;5002555;28;20026;-62
2024/01/04 12:11:05;;;;;;;1.85;1.25;;;0.50;99.90;;;;;;5002072;28;20117;-64
2024/01/04 12:13:31;;;;;;;3.70;1.02;;;0.50;99.90;;;;;;4996718;28;20517;-63
2024/01/04 12:15:57;;;;;;;2.45;1.30;;;0.50;99.90;;;;;;4999138;28;20029;-63
2024/01/04 12:18:23;;;;;;;1.30;1.05;;;0.40;99.90;;;;;;4999269;28;20410;-63
2024/01/04 12:20:49;;;;;;;1.30;1.13;;;0.40;99.90;;;;;;5000433;28;20161;-61
2024/01/04 12:23:15;;;;;;;1.20;1.10;;;0.40;99.90;;;;;;5001855;28;20040;-62
2024/01/04 12:25:41;;;;;;;2.60;0.77;;;0.30;99.90;;;;;;5004320;28;20502;-62
2024/01/04 12:28:08;;;;;;;1.50;0.90;;;0.40;99.90;;;;;;4997387;28;20036;-63
2024/01/04 12:30:36;;;;;;;1.80;1.20;;;0.30;99.90;;;;;;5003132;28;20041;-63
2024/01/04 12:33:03;;;;;;;1.15;0.95;;;0.40;99.90;;;;;;5000240;28;20029;-62
2024/01/04 12:35:28;;;;;;;2.97;1.52;;;0.30;99.90;;;;;;5000470;28;20069;-63
2024/01/04 12:38:04;;;;;;;1.23;1.13;;;0.30;99.90;;;;;;4999021;28;20115;-62
2024/01/04 12:40:40;;;;;;;1.23;1.08;;;0.40;99.90;;;;;;5003218;28;20495;-62
2024/01/04 12:43:10;;;;;;;2.40;1.42;;;0.30;99.90;;;;;;5003105;28;20502;-62
2024/01/04 12:45:36;;;;;;;1.48;1.25;;;0.30;99.90;;;;;;5001447;28;20125;-62
2024/01/04 12:48:02;;;;;;;2.35;0.98;;;0.30;99.90;;;;;;4999094;28;20076;-63
2024/01/04 12:50:31;;;;;;;1.98;1.30;;;0.30;99.90;;;;;;4985948;28;20783;-64
2024/01/04 12:52:56;;;;;;;4.55;1.73;;;0.40;99.90;;;;;;4932855;28;20029;-62
2024/01/04 12:55:23;;;;;;;2.03;1.23;;;0.40;99.90;;;;;;4963379;28;20034;-63